Terminal Aerodrome Forecast
Issued by NWS

Home | Current Version | Previous Version | Text Only | Print | Product List | Glossary On
Versions: 1 2 3 4 5 6 7 8 9 10 11 12 13 14 15 16 17 18 19 20 21 22 23 24 25 26 27 28 29 30 31 32 33 34
000
FTUS41 KBUF 261100
TAFJHW
TAF
KJHW 261134Z 2612/2712 23008KT P6SM BKN025
     FM261600 22009KT P6SM SCT030
     FM270800 21005KT P6SM SCT200
     FM271100 21004KT P6SM BKN020
      AMD LTD TO CLD VIS AND WIND=

USA.gov is the U.S. government's official web portal to all federal, state and local government web resources and services.